Time;durP1;ratioP1;P1;durP2;ratioP2;P2;SDS_P1;SDS_P2;PMS_P1;PMS_P2;Temp;Humidity;BMP_temperature;BMP_pressure;BME280_temperature;BME280_humidity;BME280_pressure;Samples;Min_cycle;Max_cycle;Signal;HPM_P1;HPM_P2
2022/03/23 00:02:18;;;;;;;28.25;15.57;;;9.40;99.90;;;;;;5077763;28;20043;-70
2022/03/23 00:04:45;;;;;;;24.73;15.93;;;9.40;99.90;;;;;;5061751;28;20052;-70
2022/03/23 00:07:11;;;;;;;29.25;15.30;;;9.40;99.90;;;;;;5078298;28;20027;-69
2022/03/23 00:09:36;;;;;;;28.80;15.93;;;9.40;99.90;;;;;;5078964;28;20028;-69
2022/03/23 00:12:02;;;;;;;26.73;16.35;;;9.30;99.90;;;;;;5078031;28;20025;-70
2022/03/23 00:14:28;;;;;;;26.83;15.75;;;9.30;99.90;;;;;;5077492;28;20036;-70
2022/03/23 00:16:54;;;;;;;28.40;15.70;;;9.30;99.90;;;;;;5078051;28;20035;-71
2022/03/23 00:19:19;;;;;;;26.20;16.83;;;9.20;99.90;;;;;;5060745;28;20041;-70
2022/03/23 00:21:45;;;;;;;24.15;15.13;;;9.20;99.90;;;;;;5078008;28;20400;-70
2022/03/23 00:24:11;;;;;;;27.60;15.82;;;9.30;99.90;;;;;;5077608;28;20128;-69
2022/03/23 00:26:37;;;;;;;26.88;15.20;;;9.30;99.90;;;;;;5077830;28;20056;-70
2022/03/23 00:29:04;;;;;;;26.50;16.23;;;9.30;99.90;;;;;;5077156;28;20460;-69
2022/03/23 00:31:30;;;;;;;24.02;15.35;;;9.20;99.90;;;;;;5077911;28;20032;-69
2022/03/23 00:33:57;;;;;;;25.77;15.82;;;9.20;99.90;;;;;;5060521;28;20033;-69
2022/03/23 00:36:24;;;;;;;24.00;15.98;;;9.10;99.90;;;;;;5077825;28;20028;-70
2022/03/23 00:38:50;;;;;;;29.98;17.27;;;9.10;99.90;;;;;;5077540;28;20071;-71
2022/03/23 00:41:16;;;;;;;31.83;17.35;;;9.10;99.90;;;;;;5060420;28;20384;-69
2022/03/23 00:43:43;;;;;;;29.45;16.70;;;9.10;99.90;;;;;;5043858;28;20040;-70
2022/03/23 00:46:09;;;;;;;30.83;16.80;;;9.20;99.90;;;;;;5077647;28;20037;-70
2022/03/23 00:48:34;;;;;;;26.10;16.35;;;9.00;99.90;;;;;;5077514;28;20101;-70
2022/03/23 00:51:00;;;;;;;31.55;17.00;;;8.90;99.90;;;;;;5076770;28;20104;-70
2022/03/23 00:53:27;;;;;;;28.42;17.88;;;8.90;99.90;;;;;;5076705;28;20122;-70
2022/03/23 00:55:53;;;;;;;32.58;19.15;;;8.90;99.90;;;;;;5076834;28;20043;-70
2022/03/23 00:58:19;;;;;;;25.63;16.70;;;8.90;99.90;;;;;;5076930;28;20024;-71
2022/03/23 01:00:45;;;;;;;28.42;17.08;;;9.00;99.90;;;;;;5076838;28;20388;-70
2022/03/23 01:03:12;;;;;;;24.92;16.38;;;8.80;99.90;;;;;;5077279;28;20029;-69
2022/03/23 01:05:38;;;;;;;28.77;16.90;;;8.70;99.90;;;;;;5077704;28;20044;-70
2022/03/23 01:08:04;;;;;;;27.15;17.17;;;8.70;99.90;;;;;;5076426;28;20032;-70
2022/03/23 01:10:32;;;;;;;28.50;17.08;;;8.70;99.90;;;;;;5077448;28;20033;-70
2022/03/23 01:12:58;;;;;;;29.25;17.48;;;8.70;99.90;;;;;;5076471;28;20051;-69
2022/03/23 01:15:23;;;;;;;29.17;17.75;;;8.70;99.90;;;;;;5060287;28;20028;-70
2022/03/23 01:17:53;;;;;;;28.90;17.83;;;8.60;99.90;;;;;;5076748;28;20109;-70
2022/03/23 01:20:19;;;;;;;26.40;17.02;;;8.60;99.90;;;;;;5077133;28;20387;-70
2022/03/23 01:22:47;;;;;;;27.52;16.85;;;8.50;99.90;;;;;;5076415;28;20273;-71
2022/03/23 01:25:13;;;;;;;32.28;17.35;;;8.50;99.90;;;;;;5077036;28;20094;-71
2022/03/23 01:27:41;;;;;;;30.30;17.35;;;8.40;99.90;;;;;;5076396;28;20032;-70
2022/03/23 01:30:11;;;;;;;31.65;17.73;;;8.50;99.90;;;;;;5076971;28;20032;-71
2022/03/23 01:32:38;;;;;;;27.40;17.25;;;8.40;99.90;;;;;;5077235;28;20085;-70
2022/03/23 01:35:05;;;;;;;31.10;17.45;;;8.40;99.90;;;;;;5077324;28;20036;-69
2022/03/23 01:37:31;;;;;;;27.75;17.73;;;8.40;99.90;;;;;;5076773;28;20025;-69
2022/03/23 01:39:58;;;;;;;27.30;17.58;;;8.30;99.90;;;;;;5075912;28;20064;-69
2022/03/23 01:42:27;;;;;;;30.23;17.90;;;8.30;99.90;;;;;;5076319;28;20397;-69
2022/03/23 01:44:54;;;;;;;28.33;17.70;;;8.30;99.90;;;;;;5076957;28;20391;-69
2022/03/23 01:47:23;;;;;;;30.13;17.98;;;8.20;99.90;;;;;;5076863;28;20031;-70
2022/03/23 01:49:52;;;;;;;30.50;17.55;;;8.10;99.90;;;;;;5059417;28;20063;-69
2022/03/23 01:52:21;;;;;;;30.85;17.52;;;8.10;99.90;;;;;;5076141;28;20028;-69
2022/03/23 01:54:48;;;;;;;29.10;17.75;;;8.10;99.90;;;;;;5077356;28;20395;-70
2022/03/23 01:57:15;;;;;;;28.60;17.27;;;8.10;99.90;;;;;;5043270;28;20056;-70
2022/03/23 01:59:41;;;;;;;27.90;17.40;;;8.00;99.90;;;;;;5059506;28;20033;-70
2022/03/23 02:02:11;;;;;;;29.38;17.77;;;8.00;99.90;;;;;;5059447;28;20033;-69
2022/03/23 02:04:50;;;;;;;31.63;18.40;;;8.00;99.90;;;;;;5061057;28;20048;-69
2022/03/23 02:07:19;;;;;;;26.95;17.40;;;8.10;99.90;;;;;;5076631;28;20037;-69
2022/03/23 02:09:47;;;;;;;30.73;18.23;;;8.00;99.90;;;;;;5076080;28;20033;-70
2022/03/23 02:12:17;;;;;;;32.70;17.08;;;7.90;99.90;;;;;;5075887;28;20032;-70
2022/03/23 02:14:43;;;;;;;28.95;18.75;;;7.90;99.90;;;;;;5075747;28;20028;-70
2022/03/23 02:17:09;;;;;;;30.13;18.38;;;7.90;99.90;;;;;;5076570;28;20438;-70
2022/03/23 02:19:35;;;;;;;28.23;19.02;;;7.80;99.90;;;;;;5059029;28;20261;-70
2022/03/23 02:22:02;;;;;;;32.65;18.63;;;7.80;99.90;;;;;;5075709;28;20040;-70
2022/03/23 02:24:30;;;;;;;28.88;18.35;;;7.90;99.90;;;;;;5076774;28;20043;-70
2022/03/23 02:26:57;;;;;;;27.38;18.08;;;7.90;99.90;;;;;;5080230;28;20031;-70
2022/03/23 02:29:25;;;;;;;33.55;19.73;;;7.70;99.90;;;;;;5079373;28;20036;-70
2022/03/23 02:31:51;;;;;;;34.90;19.42;;;7.70;99.90;;;;;;5079625;28;20052;-70
2022/03/23 02:34:17;;;;;;;32.55;18.98;;;7.60;99.90;;;;;;5079570;28;20466;-70
2022/03/23 02:36:44;;;;;;;33.60;19.33;;;7.60;99.90;;;;;;5080165;28;20389;-70
2022/03/23 02:39:10;;;;;;;30.30;18.77;;;7.50;99.90;;;;;;5079762;28;20123;-70
2022/03/23 02:41:35;;;;;;;34.45;20.58;;;7.40;99.90;;;;;;5080059;28;20056;-70
2022/03/23 02:44:01;;;;;;;35.95;19.90;;;7.50;99.90;;;;;;5080007;28;20392;-69
2022/03/23 02:46:35;;;;;;;32.00;20.05;;;7.50;99.90;;;;;;5062573;28;20028;-70
2022/03/23 02:49:03;;;;;;;32.72;20.23;;;7.50;99.90;;;;;;5079682;28;20032;-70
2022/03/23 02:51:29;;;;;;;34.30;18.90;;;7.50;99.90;;;;;;5079137;28;20020;-69
2022/03/23 03:02:41;;;;;;;27.10;18.33;;;7.40;99.90;;;;;;5079112;28;20028;-69
2022/03/23 03:05:09;;;;;;;33.45;18.98;;;7.30;99.90;;;;;;5078999;28;20056;-69
2022/03/23 03:10:21;;;;;;;30.08;18.58;;;7.30;99.90;;;;;;5079142;28;20348;-70
2022/03/23 03:12:48;;;;;;;32.15;18.52;;;7.20;99.90;;;;;;5045995;28;20029;-70
2022/03/23 03:15:14;;;;;;;31.48;19.80;;;7.30;99.90;;;;;;5080803;28;20039;-69
2022/03/23 03:17:41;;;;;;;34.50;19.52;;;7.30;99.90;;;;;;5062600;28;20032;-70
2022/03/23 03:20:08;;;;;;;31.60;20.27;;;7.20;99.90;;;;;;5078666;28;20032;-70
2022/03/23 03:22:35;;;;;;;31.05;19.15;;;7.20;99.90;;;;;;5079672;28;20098;-70
2022/03/23 03:25:02;;;;;;;31.65;19.17;;;7.10;99.90;;;;;;5079270;28;20044;-70
2022/03/23 03:27:33;;;;;;;39.88;19.63;;;7.20;99.90;;;;;;5078458;28;20029;-69
2022/03/23 03:29:59;;;;;;;30.98;19.75;;;7.00;99.90;;;;;;5078694;28;20036;-70
2022/03/23 03:32:25;;;;;;;29.10;18.58;;;7.00;99.90;;;;;;5078973;28;20082;-70
2022/03/23 03:34:50;;;;;;;29.63;19.27;;;6.90;99.90;;;;;;5078424;28;20304;-69
2022/03/23 03:37:16;;;;;;;31.60;19.67;;;6.90;99.90;;;;;;5078350;28;20043;-70
2022/03/23 03:39:42;;;;;;;31.77;19.55;;;6.90;99.90;;;;;;5061345;28;20048;-70
2022/03/23 03:42:08;;;;;;;34.33;20.00;;;6.80;99.90;;;;;;5078294;28;20029;-69
2022/03/23 03:44:33;;;;;;;33.53;19.92;;;6.80;99.90;;;;;;5079636;28;20033;-70
2022/03/23 03:46:59;;;;;;;33.13;19.13;;;6.70;99.90;;;;;;5078915;28;20377;-70
2022/03/23 03:49:25;;;;;;;32.83;21.00;;;6.70;99.90;;;;;;5078046;28;20337;-69
2022/03/23 03:51:52;;;;;;;34.25;19.33;;;6.70;99.90;;;;;;5061720;28;20036;-69
2022/03/23 03:54:18;;;;;;;29.58;19.48;;;6.70;99.90;;;;;;5078744;28;20300;-69
2022/03/23 03:56:43;;;;;;;35.42;19.52;;;6.70;99.90;;;;;;5078501;28;20020;-69
2022/03/23 03:59:09;;;;;;;34.38;20.55;;;6.70;99.90;;;;;;5077857;28;20035;-70
2022/03/23 04:01:35;;;;;;;32.05;20.65;;;6.70;99.90;;;;;;5078576;28;20055;-69
2022/03/23 04:04:01;;;;;;;31.55;20.30;;;6.60;99.90;;;;;;5079283;28;20029;-69
2022/03/23 04:06:26;;;;;;;30.05;19.42;;;6.60;99.90;;;;;;5079095;28;20021;-70
2022/03/23 04:08:52;;;;;;;30.20;20.02;;;6.60;99.90;;;;;;5078587;28;20033;-69
2022/03/23 04:11:18;;;;;;;34.58;20.23;;;6.60;99.90;;;;;;5044521;28;20123;-68
2022/03/23 04:13:44;;;;;;;30.52;18.75;;;6.60;99.90;;;;;;5078524;28;20040;-70
2022/03/23 04:16:10;;;;;;;32.67;19.88;;;6.60;99.90;;;;;;5078175;28;20265;-69
2022/03/23 04:18:35;;;;;;;33.33;18.98;;;6.50;99.90;;;;;;5078275;28;20099;-69
2022/03/23 04:21:01;;;;;;;33.83;20.30;;;6.50;99.90;;;;;;5078119;28;20041;-69
2022/03/23 04:23:27;;;;;;;33.05;20.27;;;6.50;99.90;;;;;;5060746;28;20316;-69
2022/03/23 04:25:53;;;;;;;31.50;19.55;;;6.40;99.90;;;;;;5078706;28;20032;-70
2022/03/23 04:28:21;;;;;;;31.88;20.00;;;6.30;99.90;;;;;;5060671;28;20040;-69
2022/03/23 04:30:47;;;;;;;31.08;19.63;;;6.40;99.90;;;;;;5078444;28;20462;-70
2022/03/23 04:33:13;;;;;;;34.08;20.50;;;6.30;99.90;;;;;;5078490;28;20304;-70
2022/03/23 04:35:39;;;;;;;31.40;20.73;;;6.40;99.90;;;;;;5078255;28;20066;-70
2022/03/23 04:38:05;;;;;;;33.92;20.63;;;6.40;99.90;;;;;;5077888;28;20402;-70
2022/03/23 04:40:32;;;;;;;36.08;21.38;;;6.40;99.90;;;;;;5077594;28;20041;-69
2022/03/23 04:42:58;;;;;;;36.90;20.63;;;6.40;99.90;;;;;;5076956;28;20020;-70
2022/03/23 04:45:25;;;;;;;32.95;21.20;;;6.40;99.90;;;;;;5077747;28;20039;-71
2022/03/23 04:47:51;;;;;;;34.40;21.77;;;6.30;99.90;;;;;;5076183;28;20169;-71
2022/03/23 04:50:17;;;;;;;37.17;21.23;;;6.40;99.90;;;;;;5076861;28;20123;-70
2022/03/23 04:52:45;;;;;;;35.40;20.08;;;6.20;99.90;;;;;;5077431;28;20076;-71
2022/03/23 04:55:13;;;;;;;36.70;21.55;;;6.30;99.90;;;;;;5077661;28;20269;-71
2022/03/23 04:57:39;;;;;;;33.65;20.48;;;6.40;99.90;;;;;;5076705;28;20025;-70
2022/03/23 05:00:14;;;;;;;31.63;20.38;;;6.30;99.90;;;;;;5076683;28;20099;-71
2022/03/23 05:02:41;;;;;;;35.15;21.13;;;6.20;99.90;;;;;;5077380;28;20036;-71
2022/03/23 05:05:08;;;;;;;34.35;20.98;;;6.10;99.90;;;;;;5077460;28;20025;-70
2022/03/23 05:07:35;;;;;;;38.35;21.38;;;6.10;99.90;;;;;;5076708;28;20563;-70
2022/03/23 05:10:02;;;;;;;37.50;22.10;;;6.00;99.90;;;;;;5077180;28;20039;-68
2022/03/23 05:12:28;;;;;;;37.08;22.13;;;6.10;99.90;;;;;;5043529;28;20036;-68
2022/03/23 05:14:54;;;;;;;37.75;21.23;;;6.10;99.90;;;;;;5059971;28;20393;-68
2022/03/23 05:17:20;;;;;;;34.47;21.23;;;6.10;99.90;;;;;;5077229;28;20037;-68
2022/03/23 05:19:46;;;;;;;33.67;20.95;;;6.00;99.90;;;;;;5076413;28;20477;-68
2022/03/23 05:22:12;;;;;;;34.70;19.98;;;6.00;99.90;;;;;;5077161;28;20105;-68
2022/03/23 05:24:40;;;;;;;34.80;21.05;;;5.90;99.90;;;;;;5076360;28;20060;-68
2022/03/23 05:27:08;;;;;;;38.30;22.75;;;5.90;99.90;;;;;;5059601;28;20102;-68
2022/03/23 05:29:36;;;;;;;36.15;21.65;;;5.90;99.90;;;;;;5059905;28;20135;-68
2022/03/23 05:32:02;;;;;;;34.90;21.52;;;5.80;99.90;;;;;;5076973;28;20040;-68
2022/03/23 05:34:28;;;;;;;37.67;21.60;;;5.70;99.90;;;;;;5076248;28;20044;-66
2022/03/23 05:36:54;;;;;;;36.70;22.20;;;5.70;99.90;;;;;;5076954;28;20047;-69
2022/03/23 05:39:20;;;;;;;34.33;22.00;;;5.70;99.90;;;;;;5076041;28;20049;-68
2022/03/23 05:41:46;;;;;;;40.78;22.35;;;5.70;99.90;;;;;;5059330;28;20039;-68
2022/03/23 05:44:12;;;;;;;40.38;21.92;;;5.70;99.90;;;;;;5076079;28;20411;-68
2022/03/23 05:46:42;;;;;;;39.17;22.17;;;5.70;99.90;;;;;;5075958;28;20039;-69
2022/03/23 05:49:08;;;;;;;40.22;22.48;;;5.60;99.90;;;;;;5075982;28;20044;-67
2022/03/23 05:51:35;;;;;;;40.80;22.38;;;5.50;99.90;;;;;;5075930;28;20036;-68
2022/03/23 05:54:02;;;;;;;38.47;22.85;;;5.50;99.90;;;;;;5075977;28;20060;-68
2022/03/23 05:56:27;;;;;;;40.30;22.48;;;5.60;99.90;;;;;;5076473;28;20039;-68
2022/03/23 05:58:54;;;;;;;42.90;22.48;;;5.70;99.90;;;;;;5078813;28;20451;-67
2022/03/23 06:01:20;;;;;;;39.47;22.33;;;5.80;99.90;;;;;;5080828;28;20033;-68
2022/03/23 06:03:49;;;;;;;38.58;22.63;;;5.90;99.90;;;;;;5080626;28;20128;-68
2022/03/23 06:06:16;;;;;;;40.38;23.25;;;5.80;99.90;;;;;;5063791;28;20032;-69
2022/03/23 06:08:42;;;;;;;39.45;22.92;;;5.90;99.90;;;;;;5080627;28;20040;-69
2022/03/23 06:11:08;;;;;;;38.15;23.00;;;5.90;99.90;;;;;;5080094;28;20446;-69
2022/03/23 06:13:34;;;;;;;39.50;22.13;;;5.90;99.90;;;;;;5081104;28;20032;-68
2022/03/23 06:16:00;;;;;;;41.75;22.75;;;5.90;99.90;;;;;;5079744;28;20025;-69
2022/03/23 06:18:26;;;;;;;38.60;22.75;;;5.90;99.90;;;;;;5080289;28;20384;-67
2022/03/23 06:20:52;;;;;;;36.67;22.70;;;5.80;99.90;;;;;;5080034;28;20044;-68
2022/03/23 06:23:17;;;;;;;42.13;23.05;;;5.80;99.90;;;;;;5062810;28;20063;-68
2022/03/23 06:25:43;;;;;;;41.03;23.75;;;5.90;99.90;;;;;;5063382;28;20093;-68
2022/03/23 06:28:09;;;;;;;37.08;23.20;;;5.90;99.90;;;;;;5063166;28;20400;-67
2022/03/23 06:30:35;;;;;;;40.40;23.10;;;5.90;99.90;;;;;;5079468;28;20101;-69
2022/03/23 06:33:01;;;;;;;43.08;23.00;;;6.10;99.90;;;;;;5062926;28;20066;-68
2022/03/23 06:35:29;;;;;;;42.35;23.73;;;6.10;99.90;;;;;;5062649;28;20036;-68
2022/03/23 06:37:55;;;;;;;41.72;22.73;;;6.20;99.90;;;;;;5079472;28;20308;-69
2022/03/23 06:40:21;;;;;;;35.45;22.35;;;6.30;99.90;;;;;;5079315;28;20047;-70
2022/03/23 06:42:47;;;;;;;35.53;22.17;;;6.40;99.90;;;;;;5079324;28;20035;-68
2022/03/23 06:45:13;;;;;;;35.65;23.13;;;6.40;99.90;;;;;;5080375;28;20050;-68
2022/03/23 06:47:39;;;;;;;39.22;23.58;;;6.50;99.90;;;;;;5079288;28;20407;-68
2022/03/23 06:50:07;;;;;;;44.08;24.08;;;6.50;99.90;;;;;;5062659;28;20037;-69
2022/03/23 06:52:33;;;;;;;36.05;23.08;;;6.60;99.90;;;;;;5079083;28;20041;-67
2022/03/23 06:55:00;;;;;;;38.50;23.40;;;6.60;99.90;;;;;;5079081;28;20438;-67
2022/03/23 06:57:25;;;;;;;40.13;23.58;;;6.70;99.90;;;;;;5079840;28;20082;-68
2022/03/23 06:59:51;;;;;;;39.08;22.90;;;6.80;99.90;;;;;;5079135;28;20024;-68
2022/03/23 07:02:17;;;;;;;40.08;23.95;;;6.90;99.90;;;;;;5062461;28;20361;-68
2022/03/23 07:04:43;;;;;;;40.70;24.45;;;7.00;99.90;;;;;;5079770;28;20052;-69
2022/03/23 07:07:09;;;;;;;44.90;25.10;;;7.10;99.90;;;;;;5079221;28;20090;-69
2022/03/23 07:09:38;;;;;;;40.72;25.60;;;7.20;99.90;;;;;;5079485;28;20403;-68
2022/03/23 07:12:07;;;;;;;41.67;23.83;;;7.30;99.90;;;;;;5062333;28;20135;-69
2022/03/23 07:14:34;;;;;;;38.88;24.52;;;7.50;99.90;;;;;;5078763;28;20120;-70
2022/03/23 07:17:00;;;;;;;41.33;24.67;;;7.60;99.90;;;;;;5078727;28;20105;-68
2022/03/23 07:19:26;;;;;;;39.40;24.35;;;7.70;99.90;;;;;;5061920;28;20127;-68
2022/03/23 07:21:52;;;;;;;36.75;23.10;;;7.80;99.90;;;;;;5045311;28;20051;-64
2022/03/23 07:24:19;;;;;;;42.03;25.25;;;9.10;99.90;;;;;;5078469;28;20032;-68
2022/03/23 07:26:45;;;;;;;39.53;25.67;;;9.10;99.90;;;;;;5061900;28;20300;-65
2022/03/23 07:29:11;;;;;;;40.30;24.38;;;8.90;99.90;;;;;;5078467;28;20016;-66
2022/03/23 07:31:37;;;;;;;37.38;24.05;;;8.80;99.90;;;;;;5078615;28;20036;-67
2022/03/23 07:34:04;;;;;;;40.13;23.67;;;8.70;99.90;;;;;;5078978;28;20036;-66
2022/03/23 07:36:30;;;;;;;38.75;23.10;;;8.70;99.90;;;;;;5078232;28;20028;-66
2022/03/23 07:38:56;;;;;;;37.05;23.92;;;8.80;99.90;;;;;;5078136;28;20362;-66
2022/03/23 07:41:22;;;;;;;38.78;23.23;;;8.90;99.90;;;;;;5061460;28;20036;-66
2022/03/23 07:43:49;;;;;;;38.80;23.85;;;9.00;99.90;;;;;;5078163;28;20094;-66
2022/03/23 07:46:15;;;;;;;38.72;24.85;;;9.00;99.90;;;;;;5078164;28;20070;-67
2022/03/23 07:48:41;;;;;;;41.17;23.77;;;9.10;99.90;;;;;;5078128;28;20347;-66
2022/03/23 07:51:07;;;;;;;36.15;23.70;;;9.10;99.90;;;;;;5078690;28;20086;-66
2022/03/23 07:53:33;;;;;;;37.28;22.92;;;9.30;99.90;;;;;;5078703;28;20028;-66
2022/03/23 07:55:59;;;;;;;37.60;22.55;;;9.40;99.90;;;;;;5077930;28;20098;-66
2022/03/23 07:58:29;;;;;;;35.85;23.80;;;9.30;99.90;;;;;;5061327;28;20400;-67
2022/03/23 08:00:56;;;;;;;33.25;21.80;;;9.40;99.90;;;;;;5077627;28;20041;-66
2022/03/23 08:03:21;;;;;;;38.28;23.23;;;9.60;99.90;;;;;;5077787;28;20035;-67
2022/03/23 08:05:48;;;;;;;37.00;23.52;;;9.80;99.90;;;;;;5078482;28;20323;-67
2022/03/23 08:08:14;;;;;;;33.97;22.25;;;10.00;99.90;;;;;;5078571;28;20025;-67
2022/03/23 08:10:41;;;;;;;39.80;24.33;;;10.20;99.90;;;;;;5078482;28;20035;-66
2022/03/23 08:13:09;;;;;;;35.80;23.00;;;10.20;99.90;;;;;;5078260;28;20024;-66
2022/03/23 08:15:39;;;;;;;37.92;22.98;;;10.40;99.90;;;;;;5077448;28;20076;-66
2022/03/23 08:18:06;;;;;;;35.38;22.95;;;10.40;99.90;;;;;;5077557;28;20044;-66
2022/03/23 08:20:32;;;;;;;35.85;24.10;;;10.50;99.90;;;;;;5078140;28;20098;-66
2022/03/23 08:22:59;;;;;;;40.58;24.23;;;10.60;99.90;;;;;;5077076;28;20028;-67
2022/03/23 08:25:26;;;;;;;38.25;23.20;;;10.70;99.90;;;;;;5078145;28;20032;-67
2022/03/23 08:27:53;;;;;;;35.10;23.08;;;10.80;99.90;;;;;;5077257;28;20311;-67
2022/03/23 08:30:19;;;;;;;39.70;24.73;;;11.00;99.90;;;;;;5077922;28;20098;-66
2022/03/23 08:32:45;;;;;;;36.95;23.52;;;11.20;99.90;;;;;;5077258;28;20040;-66
2022/03/23 08:35:10;;;;;;;38.35;23.95;;;11.30;99.90;;;;;;5077253;28;20033;-66
2022/03/23 08:37:37;;;;;;;44.53;25.27;;;11.40;99.90;;;;;;5077698;28;20032;-66
2022/03/23 08:40:03;;;;;;;39.67;24.23;;;11.50;99.90;;;;;;5076864;28;20056;-66
2022/03/23 08:42:30;;;;;;;41.28;24.90;;;11.60;99.90;;;;;;5077589;28;20034;-66
2022/03/23 08:44:56;;;;;;;38.75;26.10;;;11.50;99.90;;;;;;5076906;28;20104;-66
2022/03/23 08:47:22;;;;;;;41.35;24.60;;;11.60;99.90;;;;;;5076727;28;20532;-66
2022/03/23 08:49:48;;;;;;;40.03;25.05;;;11.70;99.90;;;;;;5076807;28;20028;-66
2022/03/23 08:52:14;;;;;;;45.22;25.58;;;11.60;99.90;;;;;;5076855;28;20036;-66
2022/03/23 08:54:41;;;;;;;38.35;24.48;;;11.70;99.90;;;;;;5076718;28;20037;-66
2022/03/23 08:57:07;;;;;;;34.38;23.88;;;11.90;99.90;;;;;;5059985;28;20031;-66
2022/03/23 08:59:32;;;;;;;38.10;25.25;;;12.10;99.90;;;;;;5059938;28;20041;-66
2022/03/23 09:01:58;;;;;;;39.38;25.80;;;12.30;99.90;;;;;;5043308;28;20041;-66
2022/03/23 09:04:24;;;;;;;37.78;24.83;;;12.50;99.90;;;;;;5077336;28;20351;-66
2022/03/23 09:06:50;;;;;;;41.53;26.88;;;12.70;99.90;;;;;;5076613;28;20037;-66
2022/03/23 09:09:16;;;;;;;37.40;25.38;;;12.90;99.90;;;;;;5077186;28;20086;-66
2022/03/23 09:11:43;;;;;;;36.53;24.65;;;13.00;99.90;;;;;;5076530;28;20036;-66
2022/03/23 09:14:12;;;;;;;39.80;24.73;;;13.10;99.90;;;;;;5076419;28;20035;-66
2022/03/23 09:16:39;;;;;;;36.55;25.20;;;13.20;99.90;;;;;;5076359;28;20052;-66
2022/03/23 09:19:05;;;;;;;40.15;26.45;;;13.20;99.90;;;;;;5076319;28;20024;-66
2022/03/23 09:21:38;;;;;;;35.10;24.27;;;13.30;99.90;;;;;;5076243;28;20127;-65
2022/03/23 09:24:05;;;;;;;40.22;26.13;;;13.50;99.90;;;;;;5076512;28;20360;-66
2022/03/23 09:26:33;;;;;;;39.33;25.25;;;13.70;99.90;;;;;;5077748;28;20323;-66
2022/03/23 09:28:59;;;;;;;37.42;25.05;;;13.80;99.90;;;;;;5076421;28;20029;-66
2022/03/23 09:31:29;;;;;;;41.20;24.60;;;13.80;99.90;;;;;;5059942;28;20094;-67
2022/03/23 09:33:55;;;;;;;36.42;24.33;;;14.00;99.90;;;;;;5059375;28;20047;-67
2022/03/23 09:39:05;;;;;;;38.10;24.17;;;13.90;99.90;;;;;;5076738;28;20059;-67
2022/03/23 09:41:33;;;;;;;37.08;24.00;;;13.70;99.90;;;;;;5076857;28;20033;-67
2022/03/23 09:43:59;;;;;;;36.28;23.42;;;13.70;99.90;;;;;;5076659;28;20033;-67
2022/03/23 09:46:25;;;;;;;36.70;22.98;;;13.80;99.90;;;;;;5076288;28;20105;-67
2022/03/23 09:48:51;;;;;;;36.38;23.55;;;14.20;99.90;;;;;;5059227;28;20036;-67
2022/03/23 09:51:19;;;;;;;34.67;23.13;;;14.60;99.90;;;;;;5076603;28;20109;-66
2022/03/23 09:53:45;;;;;;;34.88;24.02;;;14.80;99.90;;;;;;5059725;28;20033;-64
2022/03/23 09:56:12;;;;;;;38.25;23.85;;;15.00;99.90;;;;;;5076627;28;20044;-67
2022/03/23 09:58:38;;;;;;;33.28;22.85;;;15.00;99.90;;;;;;5076014;28;20029;-67
2022/03/23 10:01:26;;;;;;;35.65;23.45;;;15.10;99.90;;;;;;5076609;28;20028;-67
2022/03/23 10:04:27;;;;;;;34.00;22.20;;;15.00;99.90;;;;;;5076047;28;20040;-68
2022/03/23 10:07:15;;;;;;;32.92;21.90;;;14.80;99.10;;;;;;5075802;28;20150;-67
2022/03/23 10:10:00;;;;;;;33.47;22.17;;;14.90;99.00;;;;;;5076463;28;20025;-67
2022/03/23 10:13:03;;;;;;;34.55;22.25;;;15.00;99.00;;;;;;5076527;28;20028;-67
2022/03/23 10:16:06;;;;;;;39.85;24.08;;;15.20;98.10;;;;;;5075809;28;20032;-65
2022/03/23 10:18:52;;;;;;;;;;;15.70;97.80;;;;;;5059777;28;20025;-69
2022/03/23 10:21:23;;;;;;;34.00;23.65;;;15.90;96.70;;;;;;5042546;28;19923;-68
2022/03/23 10:24:12;;;;;;;36.78;24.08;;;16.20;96.80;;;;;;5076547;28;20083;-68
2022/03/23 10:26:41;;;;;;;36.42;24.02;;;16.20;96.20;;;;;;5075771;28;20384;-68
2022/03/23 10:29:22;;;;;;;38.92;24.40;;;16.20;96.40;;;;;;5058990;28;20052;-69
2022/03/23 10:31:59;;;;;;;38.20;24.90;;;16.60;95.50;;;;;;5075604;28;20095;-70
2022/03/23 10:34:36;;;;;;;35.88;23.85;;;16.90;94.80;;;;;;5075856;28;20073;-69
2022/03/23 10:37:02;;;;;;;38.90;25.40;;;17.00;95.40;;;;;;5076341;28;20052;-69
2022/03/23 10:39:30;;;;;;;47.90;25.17;;;17.80;94.20;;;;;;5075476;28;20079;-69
2022/03/23 10:42:05;;;;;;;37.63;24.20;;;18.40;92.20;;;;;;5058763;28;20024;-71
2022/03/23 10:44:31;;;;;;;38.63;25.23;;;18.80;90.60;;;;;;5076667;28;20020;-70
2022/03/23 10:46:58;;;;;;;34.78;24.88;;;19.10;90.30;;;;;;5062400;28;20094;-70
2022/03/23 10:49:37;;;;;;;36.05;24.48;;;19.90;86.40;;;;;;5079325;28;20419;-70
2022/03/23 10:52:17;;;;;;;32.17;24.38;;;20.90;83.50;;;;;;5079298;28;20115;-69
2022/03/23 10:54:58;;;;;;;37.85;26.15;;;22.10;78.40;;;;;;5062901;28;20067;-70
2022/03/23 10:57:44;;;;;;;31.25;24.90;;;21.70;73.50;;;;;;5079984;28;20029;-70
2022/03/23 11:00:30;;;;;;;33.47;25.98;;;22.70;71.80;;;;;;5079027;28;20055;-69
2022/03/23 11:02:57;;;;;;;40.42;26.15;;;23.30;67.90;;;;;;5079091;28;20087;-68
2022/03/23 11:05:38;;;;;;;38.45;27.33;;;23.80;68.20;;;;;;5062454;28;20021;-62
2022/03/23 11:08:11;;;;;;;32.45;24.48;;;24.60;61.60;;;;;;5079564;28;20029;-63
2022/03/23 11:16:24;;;;;;;29.63;24.52;;;22.00;65.20;;;;;;5079061;28;20341;-63
2022/03/23 11:19:14;;;;;;;28.40;23.58;;;23.30;61.00;;;;;;5079149;28;20123;-64
2022/03/23 11:22:01;;;;;;;30.70;23.17;;;24.40;58.40;;;;;;5079218;28;20036;-63
2022/03/23 11:24:33;;;;;;;31.85;23.75;;;25.40;56.30;;;;;;5079094;28;20021;-63
2022/03/23 11:27:00;;;;;;;30.15;22.27;;;25.30;54.50;;;;;;5061707;28;20033;-63
2022/03/23 11:29:27;;;;;;;29.02;22.00;;;24.70;53.60;;;;;;5061649;28;20020;-64
2022/03/23 11:31:53;;;;;;;27.58;22.13;;;23.90;54.90;;;;;;5061830;28;20047;-64
2022/03/23 11:34:22;;;;;;;27.98;21.63;;;22.40;57.40;;;;;;5061788;28;20086;-63
2022/03/23 11:36:51;;;;;;;29.58;22.63;;;21.90;57.70;;;;;;5078209;28;20033;-64
2022/03/23 11:39:21;;;;;;;25.25;20.42;;;22.90;57.50;;;;;;5077998;28;20048;-65
2022/03/23 11:41:51;;;;;;;24.10;18.55;;;22.80;55.40;;;;;;5061434;28;20361;-65
2022/03/23 11:44:18;;;;;;;24.00;19.52;;;22.70;55.10;;;;;;5078163;28;20036;-64
2022/03/23 11:46:45;;;;;;;24.80;19.00;;;22.80;56.20;;;;;;5078361;28;20396;-65
2022/03/23 11:49:40;;;;;;;23.48;19.25;;;23.30;53.60;;;;;;5078754;28;20063;-65
2022/03/23 11:52:32;;;;;;;29.40;19.17;;;23.80;54.50;;;;;;5078688;28;20352;-64
2022/03/23 11:55:37;;;;;;;23.63;18.25;;;25.50;51.90;;;;;;5077962;28;20047;-64
2022/03/23 11:58:04;;;;;;;22.75;18.48;;;26.40;50.60;;;;;;5077694;28;20035;-63
2022/03/23 12:00:38;;;;;;;22.20;18.33;;;26.40;48.60;;;;;;5078639;28;20106;-64
2022/03/23 12:03:04;;;;;;;22.38;18.85;;;26.10;48.00;;;;;;5078466;28;20052;-64
2022/03/23 12:05:33;;;;;;;24.95;20.08;;;26.10;49.30;;;;;;5078541;28;20032;-62
2022/03/23 12:07:59;;;;;;;27.90;21.42;;;27.60;48.30;;;;;;5078616;28;20107;-62
2022/03/23 12:10:31;;;;;;;25.60;21.77;;;28.80;46.10;;;;;;5077564;28;20474;-62
2022/03/23 12:13:16;;;;;;;24.83;20.60;;;28.60;45.60;;;;;;5061841;28;20044;-62
2022/03/23 12:15:58;;;;;;;24.95;20.08;;;28.90;44.60;;;;;;5078335;28;20027;-62
2022/03/23 12:18:40;;;;;;;24.23;20.50;;;29.40;44.40;;;;;;5077503;28;20071;-62
2022/03/23 12:21:10;;;;;;;24.13;20.33;;;30.40;43.20;;;;;;5078229;28;20025;-64
2022/03/23 12:24:04;;;;;;;22.33;18.70;;;31.20;42.00;;;;;;5078117;28;20033;-61
2022/03/23 12:26:36;;;;;;;21.20;18.85;;;31.70;40.10;;;;;;5077361;28;20115;-66
2022/03/23 12:29:08;;;;;;;25.40;19.48;;;31.80;39.10;;;;;;5078114;28;20025;-65
2022/03/23 12:31:37;;;;;;;22.58;19.02;;;29.60;39.80;;;;;;5078026;28;20032;-66
2022/03/23 12:34:08;;;;;;;22.73;18.77;;;29.20;40.30;;;;;;5077332;28;20138;-66
2022/03/23 12:37:02;;;;;;;24.15;18.60;;;30.20;39.90;;;;;;5077912;28;20036;-65
2022/03/23 12:39:41;;;;;;;20.55;17.15;;;30.10;38.90;;;;;;5076930;28;20072;-65
2022/03/23 12:42:12;;;;;;;23.20;16.88;;;29.70;38.60;;;;;;5076922;28;20017;-65
2022/03/23 12:45:02;;;;;;;23.52;16.90;;;30.50;37.90;;;;;;5077681;28;20038;-65
2022/03/23 12:47:29;;;;;;;25.60;19.10;;;29.30;37.80;;;;;;5076882;28;20029;-65
2022/03/23 12:58:37;;;;;;;24.00;17.48;;;30.00;38.90;;;;;;5077429;28;20036;-65
2022/03/23 13:01:11;;;;;;;26.00;18.50;;;30.50;37.80;;;;;;5077452;28;20112;-63
2022/03/23 13:03:43;;;;;;;20.15;17.45;;;30.70;37.30;;;;;;5077352;28;20036;-66
2022/03/23 13:06:13;;;;;;;20.00;15.90;;;29.30;38.00;;;;;;5076537;28;20317;-67
2022/03/23 13:08:47;;;;;;;16.50;13.45;;;29.00;39.30;;;;;;5059768;28;20032;-64
2022/03/23 13:11:18;;;;;;;16.05;12.18;;;30.20;37.90;;;;;;5077182;28;20296;-66